sensor_id;sensor_type;location;lat;lon;timestamp;temperature;humidity
15044;DHT22;7619;48.562;8.910;2022-08-03T00:04:24;18.90;99.90
15044;DHT22;7619;48.562;8.910;2022-08-03T00:06:53;18.90;1.00
15044;DHT22;7619;48.562;8.910;2022-08-03T00:09:21;18.90;38.20
15044;DHT22;7619;48.562;8.910;2022-08-03T00:11:50;19.00;99.90
15044;DHT22;7619;48.562;8.910;2022-08-03T00:14:19;18.90;99.90
15044;DHT22;7619;48.562;8.910;2022-08-03T00:21:43;18.70;1.00
15044;DHT22;7619;48.562;8.910;2022-08-03T00:24:13;18.60;1.00
15044;DHT22;7619;48.562;8.910;2022-08-03T00:26:42;18.60;56.00
15044;DHT22;7619;48.562;8.910;2022-08-03T00:31:38;18.50;1.00
15044;DHT22;7619;48.562;8.910;2022-08-03T00:34:08;18.40;99.90
15044;DHT22;7619;48.562;8.910;2022-08-03T00:36:36;18.40;1.00
15044;DHT22;7619;48.562;8.910;2022-08-03T00:41:33;18.30;1.00
15044;DHT22;7619;48.562;8.910;2022-08-03T00:44:02;18.30;72.80
15044;DHT22;7619;48.562;8.910;2022-08-03T00:46:31;18.20;99.90
15044;DHT22;7619;48.562;8.910;2022-08-03T00:56:23;17.70;1.00
15044;DHT22;7619;48.562;8.910;2022-08-03T00:58:54;17.60;99.90
15044;DHT22;7619;48.562;8.910;2022-08-03T01:01:24;17.60;99.90
15044;DHT22;7619;48.562;8.910;2022-08-03T01:03:53;17.60;99.90
15044;DHT22;7619;48.562;8.910;2022-08-03T01:06:25;17.50;99.90
15044;DHT22;7619;48.562;8.910;2022-08-03T01:08:58;17.50;99.90
15044;DHT22;7619;48.562;8.910;2022-08-03T01:11:30;17.40;99.90
15044;DHT22;7619;48.562;8.910;2022-08-03T01:14:02;17.40;99.90
15044;DHT22;7619;48.562;8.910;2022-08-03T01:16:35;17.40;99.90
15044;DHT22;7619;48.562;8.910;2022-08-03T01:19:11;17.40;99.90
15044;DHT22;7619;48.562;8.910;2022-08-03T01:21:43;17.50;99.90
15044;DHT22;7619;48.562;8.910;2022-08-03T01:26:54;17.50;99.90
15044;DHT22;7619;48.562;8.910;2022-08-03T01:29:48;17.50;99.90
15044;DHT22;7619;48.562;8.910;2022-08-03T01:32:18;17.60;99.90
15044;DHT22;7619;48.562;8.910;2022-08-03T01:34:51;17.60;99.90
15044;DHT22;7619;48.562;8.910;2022-08-03T01:37:23;17.60;99.90
15044;DHT22;7619;48.562;8.910;2022-08-03T01:39:55;17.70;99.90
15044;DHT22;7619;48.562;8.910;2022-08-03T01:42:25;17.60;99.90
15044;DHT22;7619;48.562;8.910;2022-08-03T01:44:55;17.40;99.90
15044;DHT22;7619;48.562;8.910;2022-08-03T01:47:27;17.40;99.90
15044;DHT22;7619;48.562;8.910;2022-08-03T01:49:57;17.30;99.90
15044;DHT22;7619;48.562;8.910;2022-08-03T01:52:30;17.30;99.90
15044;DHT22;7619;48.562;8.910;2022-08-03T01:55:01;17.30;99.90
15044;DHT22;7619;48.562;8.910;2022-08-03T02:00:00;17.20;99.90
15044;DHT22;7619;48.562;8.910;2022-08-03T02:02:30;17.20;99.90
15044;DHT22;7619;48.562;8.910;2022-08-03T02:07:29;17.20;99.90
15044;DHT22;7619;48.562;8.910;2022-08-03T02:10:03;17.10;99.90
15044;DHT22;7619;48.562;8.910;2022-08-03T02:12:33;17.00;99.90
15044;DHT22;7619;48.562;8.910;2022-08-03T02:15:03;16.90;99.90
15044;DHT22;7619;48.562;8.910;2022-08-03T02:17:34;16.90;99.90
15044;DHT22;7619;48.562;8.910;2022-08-03T02:20:05;17.00;99.90
15044;DHT22;7619;48.562;8.910;2022-08-03T02:22:35;17.00;99.90
15044;DHT22;7619;48.562;8.910;2022-08-03T02:27:37;17.10;99.90
15044;DHT22;7619;48.562;8.910;2022-08-03T02:30:09;17.10;99.90
15044;DHT22;7619;48.562;8.910;2022-08-03T02:32:40;17.10;99.90
15044;DHT22;7619;48.562;8.910;2022-08-03T02:35:12;17.00;99.90
15044;DHT22;7619;48.562;8.910;2022-08-03T02:37:43;17.00;99.90
15044;DHT22;7619;48.562;8.910;2022-08-03T02:40:15;17.00;99.90
15044;DHT22;7619;48.562;8.910;2022-08-03T02:42:47;16.90;99.90
15044;DHT22;7619;48.562;8.910;2022-08-03T02:45:18;16.90;99.90
15044;DHT22;7619;48.562;8.910;2022-08-03T02:47:48;16.90;99.90
15044;DHT22;7619;48.562;8.910;2022-08-03T02:52:47;16.90;99.90
15044;DHT22;7619;48.562;8.910;2022-08-03T02:55:19;16.90;99.90
15044;DHT22;7619;48.562;8.910;2022-08-03T02:57:48;16.70;99.90
15044;DHT22;7619;48.562;8.910;2022-08-03T03:00:19;16.80;99.90
15044;DHT22;7619;48.562;8.910;2022-08-03T03:02:48;16.80;99.90
15044;DHT22;7619;48.562;8.910;2022-08-03T03:05:18;16.80;99.90
15044;DHT22;7619;48.562;8.910;2022-08-03T03:07:47;16.80;99.90
15044;DHT22;7619;48.562;8.910;2022-08-03T03:10:16;16.80;99.90
15044;DHT22;7619;48.562;8.910;2022-08-03T03:12:46;16.80;99.90
15044;DHT22;7619;48.562;8.910;2022-08-03T03:15:15;16.80;99.90
15044;DHT22;7619;48.562;8.910;2022-08-03T03:17:45;16.70;99.90
15044;DHT22;7619;48.562;8.910;2022-08-03T03:20:15;16.70;99.90
15044;DHT22;7619;48.562;8.910;2022-08-03T03:22:46;16.60;99.90
15044;DHT22;7619;48.562;8.910;2022-08-03T03:27:44;16.40;99.90
15044;DHT22;7619;48.562;8.910;2022-08-03T03:30:13;16.40;99.90
15044;DHT22;7619;48.562;8.910;2022-08-03T03:32:42;16.30;99.90
15044;DHT22;7619;48.562;8.910;2022-08-03T03:35:11;16.20;99.90
15044;DHT22;7619;48.562;8.910;2022-08-03T03:42:38;16.10;99.90
15044;DHT22;7619;48.562;8.910;2022-08-03T03:47:36;16.00;99.90
15044;DHT22;7619;48.562;8.910;2022-08-03T03:50:07;16.00;99.90
15044;DHT22;7619;48.562;8.910;2022-08-03T03:52:37;16.10;99.90
15044;DHT22;7619;48.562;8.910;2022-08-03T03:55:07;16.10;99.90
15044;DHT22;7619;48.562;8.910;2022-08-03T03:57:36;16.10;99.90
15044;DHT22;7619;48.562;8.910;2022-08-03T04:02:34;16.10;99.90
15044;DHT22;7619;48.562;8.910;2022-08-03T04:05:05;16.10;99.90
15044;DHT22;7619;48.562;8.910;2022-08-03T04:07:56;16.00;99.90
15044;DHT22;7619;48.562;8.910;2022-08-03T04:13:42;15.90;99.90
15044;DHT22;7619;48.562;8.910;2022-08-03T04:16:13;15.90;99.90
15044;DHT22;7619;48.562;8.910;2022-08-03T04:18:45;15.90;99.90
15044;DHT22;7619;48.562;8.910;2022-08-03T04:21:16;16.00;99.90
15044;DHT22;7619;48.562;8.910;2022-08-03T04:23:48;16.20;99.90
15044;DHT22;7619;48.562;8.910;2022-08-03T04:26:21;16.10;99.90
15044;DHT22;7619;48.562;8.910;2022-08-03T04:28:51;16.20;99.90
15044;DHT22;7619;48.562;8.910;2022-08-03T04:31:22;16.30;99.90
15044;DHT22;7619;48.562;8.910;2022-08-03T04:33:52;16.40;99.90
15044;DHT22;7619;48.562;8.910;2022-08-03T04:36:24;16.60;99.90
15044;DHT22;7619;48.562;8.910;2022-08-03T04:38:58;16.70;99.90
15044;DHT22;7619;48.562;8.910;2022-08-03T04:41:27;16.80;99.90
15044;DHT22;7619;48.562;8.910;2022-08-03T04:43:59;16.90;99.90
15044;DHT22;7619;48.562;8.910;2022-08-03T04:48:58;17.10;99.90
15044;DHT22;7619;48.562;8.910;2022-08-03T04:51:28;17.50;99.90
15044;DHT22;7619;48.562;8.910;2022-08-03T04:53:57;18.00;99.90
15044;DHT22;7619;48.562;8.910;2022-08-03T04:56:26;18.50;99.90
15044;DHT22;7619;48.562;8.910;2022-08-03T04:58:55;19.00;99.90
15044;DHT22;7619;48.562;8.910;2022-08-03T05:01:23;20.00;99.90
15044;DHT22;7619;48.562;8.910;2022-08-03T05:08:49;22.00;99.90
15044;DHT22;7619;48.562;8.910;2022-08-03T05:11:18;22.40;1.00
15044;DHT22;7619;48.562;8.910;2022-08-03T05:13:47;22.60;97.10
15044;DHT22;7619;48.562;8.910;2022-08-03T05:16:16;23.00;1.00
15044;DHT22;7619;48.562;8.910;2022-08-03T05:18:45;23.90;1.00
15044;DHT22;7619;48.562;8.910;2022-08-03T05:21:14;24.30;90.10
15044;DHT22;7619;48.562;8.910;2022-08-03T05:23:43;24.50;99.90
15044;DHT22;7619;48.562;8.910;2022-08-03T05:26:12;24.90;1.00
15044;DHT22;7619;48.562;8.910;2022-08-03T05:28:41;25.20;99.90
15044;DHT22;7619;48.562;8.910;2022-08-03T05:31:09;25.50;1.00
15044;DHT22;7619;48.562;8.910;2022-08-03T05:33:40;25.40;1.00
15044;DHT22;7619;48.562;8.910;2022-08-03T05:36:10;25.50;1.00
15044;DHT22;7619;48.562;8.910;2022-08-03T05:38:39;25.50;99.90
15044;DHT22;7619;48.562;8.910;2022-08-03T05:41:07;25.90;99.90
15044;DHT22;7619;48.562;8.910;2022-08-03T05:43:36;26.30;99.90
15044;DHT22;7619;48.562;8.910;2022-08-03T05:46:05;26.40;99.90
15044;DHT22;7619;48.562;8.910;2022-08-03T05:48:34;26.70;99.90
15044;DHT22;7619;48.562;8.910;2022-08-03T05:51:02;27.10;99.90
15044;DHT22;7619;48.562;8.910;2022-08-03T05:53:33;27.00;99.90
15044;DHT22;7619;48.562;8.910;2022-08-03T05:56:03;27.40;99.90
15044;DHT22;7619;48.562;8.910;2022-08-03T05:58:32;27.00;99.90
15044;DHT22;7619;48.562;8.910;2022-08-03T06:01:01;27.10;99.90
15044;DHT22;7619;48.562;8.910;2022-08-03T06:03:30;27.40;99.90
15044;DHT22;7619;48.562;8.910;2022-08-03T06:05:58;27.70;99.90
15044;DHT22;7619;48.562;8.910;2022-08-03T06:08:27;27.60;99.90
15044;DHT22;7619;48.562;8.910;2022-08-03T06:10:56;27.80;99.90
15044;DHT22;7619;48.562;8.910;2022-08-03T06:13:25;28.50;99.90
15044;DHT22;7619;48.562;8.910;2022-08-03T06:15:54;29.10;99.90
15044;DHT22;7619;48.562;8.910;2022-08-03T06:20:51;29.20;99.90
15044;DHT22;7619;48.562;8.910;2022-08-03T06:28:16;29.50;99.90
15044;DHT22;7619;48.562;8.910;2022-08-03T06:30:45;29.70;99.90
15044;DHT22;7619;48.562;8.910;2022-08-03T06:33:14;29.70;99.90
15044;DHT22;7619;48.562;8.910;2022-08-03T06:35:43;29.70;99.90
15044;DHT22;7619;48.562;8.910;2022-08-03T06:38:11;29.80;99.90
15044;DHT22;7619;48.562;8.910;2022-08-03T06:40:40;30.10;99.90
15044;DHT22;7619;48.562;8.910;2022-08-03T06:43:09;30.10;99.90
15044;DHT22;7619;48.562;8.910;2022-08-03T06:45:40;30.70;99.90
15044;DHT22;7619;48.562;8.910;2022-08-03T06:48:11;30.90;99.90
15044;DHT22;7619;48.562;8.910;2022-08-03T06:50:40;31.10;99.90
15044;DHT22;7619;48.562;8.910;2022-08-03T06:53:11;30.70;99.90
15044;DHT22;7619;48.562;8.910;2022-08-03T06:55:39;31.10;99.90
15044;DHT22;7619;48.562;8.910;2022-08-03T06:58:08;31.40;99.90
15044;DHT22;7619;48.562;8.910;2022-08-03T07:00:37;30.90;99.90
15044;DHT22;7619;48.562;8.910;2022-08-03T07:03:06;30.30;99.90
15044;DHT22;7619;48.562;8.910;2022-08-03T07:05:35;30.50;99.90
15044;DHT22;7619;48.562;8.910;2022-08-03T07:08:04;30.40;99.90
15044;DHT22;7619;48.562;8.910;2022-08-03T07:10:34;30.20;99.90
15044;DHT22;7619;48.562;8.910;2022-08-03T07:13:04;30.20;99.90
15044;DHT22;7619;48.562;8.910;2022-08-03T07:18:01;31.20;99.90
15044;DHT22;7619;48.562;8.910;2022-08-03T07:20:31;31.70;99.90
15044;DHT22;7619;48.562;8.910;2022-08-03T07:23:00;31.70;99.90
15044;DHT22;7619;48.562;8.910;2022-08-03T07:25:28;32.20;99.90
15044;DHT22;7619;48.562;8.910;2022-08-03T07:27:57;32.40;99.90
15044;DHT22;7619;48.562;8.910;2022-08-03T07:30:26;32.60;99.90
15044;DHT22;7619;48.562;8.910;2022-08-03T07:32:55;32.40;99.90
15044;DHT22;7619;48.562;8.910;2022-08-03T07:35:24;32.60;99.90
15044;DHT22;7619;48.562;8.910;2022-08-03T07:37:54;32.90;99.90
15044;DHT22;7619;48.562;8.910;2022-08-03T07:40:23;33.20;99.90
15044;DHT22;7619;48.562;8.910;2022-08-03T07:42:53;32.30;99.90
15044;DHT22;7619;48.562;8.910;2022-08-03T07:45:21;32.20;99.90
15044;DHT22;7619;48.562;8.910;2022-08-03T07:47:51;32.60;99.90
15044;DHT22;7619;48.562;8.910;2022-08-03T07:50:19;32.70;99.90
15044;DHT22;7619;48.562;8.910;2022-08-03T07:52:48;33.20;99.90
15044;DHT22;7619;48.562;8.910;2022-08-03T07:55:20;33.50;99.90
15044;DHT22;7619;48.562;8.910;2022-08-03T07:58:00;33.20;99.90
15044;DHT22;7619;48.562;8.910;2022-08-03T08:00:29;33.00;99.90
15044;DHT22;7619;48.562;8.910;2022-08-03T08:02:58;33.30;99.90
15044;DHT22;7619;48.562;8.910;2022-08-03T08:05:27;33.80;99.90
15044;DHT22;7619;48.562;8.910;2022-08-03T08:07:57;34.30;99.90
15044;DHT22;7619;48.562;8.910;2022-08-03T08:10:30;34.10;99.90
15044;DHT22;7619;48.562;8.910;2022-08-03T08:13:00;33.90;99.90
15044;DHT22;7619;48.562;8.910;2022-08-03T08:15:30;34.10;99.90
15044;DHT22;7619;48.562;8.910;2022-08-03T08:18:00;34.40;99.90
15044;DHT22;7619;48.562;8.910;2022-08-03T08:20:31;34.70;99.90
15044;DHT22;7619;48.562;8.910;2022-08-03T08:23:01;34.60;99.90
15044;DHT22;7619;48.562;8.910;2022-08-03T08:25:30;34.90;99.90
15044;DHT22;7619;48.562;8.910;2022-08-03T08:28:00;35.30;99.90
15044;DHT22;7619;48.562;8.910;2022-08-03T08:30:31;34.70;99.90
15044;DHT22;7619;48.562;8.910;2022-08-03T08:33:00;34.50;99.90
15044;DHT22;7619;48.562;8.910;2022-08-03T08:35:29;34.40;99.90
15044;DHT22;7619;48.562;8.910;2022-08-03T08:38:00;34.70;99.90
15044;DHT22;7619;48.562;8.910;2022-08-03T08:42:57;34.30;99.90
15044;DHT22;7619;48.562;8.910;2022-08-03T08:45:26;34.10;99.90
15044;DHT22;7619;48.562;8.910;2022-08-03T08:47:56;34.70;99.90
15044;DHT22;7619;48.562;8.910;2022-08-03T08:50:25;34.90;99.90
15044;DHT22;7619;48.562;8.910;2022-08-03T08:52:55;35.20;99.90
15044;DHT22;7619;48.562;8.910;2022-08-03T08:55:25;35.10;99.90
15044;DHT22;7619;48.562;8.910;2022-08-03T08:58:00;34.60;99.90
15044;DHT22;7619;48.562;8.910;2022-08-03T09:00:28;35.00;99.90
15044;DHT22;7619;48.562;8.910;2022-08-03T09:02:58;35.00;99.90
15044;DHT22;7619;48.562;8.910;2022-08-03T09:05:28;35.00;99.90
15044;DHT22;7619;48.562;8.910;2022-08-03T09:07:59;34.50;99.90
15044;DHT22;7619;48.562;8.910;2022-08-03T09:10:29;34.60;99.90
15044;DHT22;7619;48.562;8.910;2022-08-03T09:13:03;34.50;99.90
15044;DHT22;7619;48.562;8.910;2022-08-03T09:15:33;34.80;99.90
15044;DHT22;7619;48.562;8.910;2022-08-03T09:18:03;35.20;99.90
15044;DHT22;7619;48.562;8.910;2022-08-03T09:20:34;35.40;99.90
15044;DHT22;7619;48.562;8.910;2022-08-03T09:23:05;35.50;99.00
15044;DHT22;7619;48.562;8.910;2022-08-03T09:25:36;35.30;99.90
15044;DHT22;7619;48.562;8.910;2022-08-03T09:28:09;35.20;98.50
15044;DHT22;7619;48.562;8.910;2022-08-03T09:30:40;35.20;98.90
15044;DHT22;7619;48.562;8.910;2022-08-03T09:33:10;34.50;98.20
15044;DHT22;7619;48.562;8.910;2022-08-03T09:35:43;34.70;97.80
15044;DHT22;7619;48.562;8.910;2022-08-03T09:38:14;34.90;98.40
15044;DHT22;7619;48.562;8.910;2022-08-03T09:40:44;35.00;97.70
15044;DHT22;7619;48.562;8.910;2022-08-03T09:43:13;35.30;96.90
15044;DHT22;7619;48.562;8.910;2022-08-03T09:45:43;35.60;97.00
15044;DHT22;7619;48.562;8.910;2022-08-03T09:50:51;35.00;96.60
15044;DHT22;7619;48.562;8.910;2022-08-03T09:53:21;35.00;96.10
15044;DHT22;7619;48.562;8.910;2022-08-03T09:55:52;34.90;96.10
15044;DHT22;7619;48.562;8.910;2022-08-03T09:58:24;34.70;94.80
15044;DHT22;7619;48.562;8.910;2022-08-03T10:03:27;35.00;95.70
15044;DHT22;7619;48.562;8.910;2022-08-03T10:05:57;34.40;95.00
15044;DHT22;7619;48.562;8.910;2022-08-03T10:08:26;34.70;95.00
15044;DHT22;7619;48.562;8.910;2022-08-03T10:10:55;34.50;94.40
15044;DHT22;7619;48.562;8.910;2022-08-03T10:13:27;34.40;94.30
15044;DHT22;7619;48.562;8.910;2022-08-03T10:15:56;34.40;94.30
15044;DHT22;7619;48.562;8.910;2022-08-03T10:18:25;34.20;93.60
15044;DHT22;7619;48.562;8.910;2022-08-03T10:20:57;34.40;93.90
15044;DHT22;7619;48.562;8.910;2022-08-03T10:23:28;34.80;93.20
15044;DHT22;7619;48.562;8.910;2022-08-03T10:26:00;34.50;92.70
15044;DHT22;7619;48.562;8.910;2022-08-03T10:28:32;34.80;92.90
15044;DHT22;7619;48.562;8.910;2022-08-03T10:31:02;35.20;92.50
15044;DHT22;7619;48.562;8.910;2022-08-03T10:33:36;35.10;92.70
15044;DHT22;7619;48.562;8.910;2022-08-03T10:36:07;35.00;92.30
15044;DHT22;7619;48.562;8.910;2022-08-03T10:38:39;35.10;92.60
15044;DHT22;7619;48.562;8.910;2022-08-03T10:41:08;35.20;92.20
15044;DHT22;7619;48.562;8.910;2022-08-03T10:43:41;35.20;91.90
15044;DHT22;7619;48.562;8.910;2022-08-03T10:46:11;35.10;92.70
15044;DHT22;7619;48.562;8.910;2022-08-03T10:48:42;35.00;91.90
15044;DHT22;7619;48.562;8.910;2022-08-03T10:51:12;34.80;92.20
15044;DHT22;7619;48.562;8.910;2022-08-03T10:56:40;34.50;92.30
15044;DHT22;7619;48.562;8.910;2022-08-03T10:59:58;34.70;91.50
15044;DHT22;7619;48.562;8.910;2022-08-03T11:03:03;34.70;91.80
15044;DHT22;7619;48.562;8.910;2022-08-03T11:05:35;34.50;91.40
15044;DHT22;7619;48.562;8.910;2022-08-03T11:08:38;34.50;91.40
15044;DHT22;7619;48.562;8.910;2022-08-03T11:11:25;34.50;91.20
15044;DHT22;7619;48.562;8.910;2022-08-03T11:16:30;34.90;90.70
15044;DHT22;7619;48.562;8.910;2022-08-03T11:19:03;35.00;90.30
15044;DHT22;7619;48.562;8.910;2022-08-03T11:21:57;35.10;90.20
15044;DHT22;7619;48.562;8.910;2022-08-03T11:24:56;35.10;90.40
15044;DHT22;7619;48.562;8.910;2022-08-03T11:27:30;34.80;90.70
15044;DHT22;7619;48.562;8.910;2022-08-03T11:30:03;34.50;90.60
15044;DHT22;7619;48.562;8.910;2022-08-03T11:32:55;34.50;90.00
15044;DHT22;7619;48.562;8.910;2022-08-03T11:35:26;34.70;90.30
15044;DHT22;7619;48.562;8.910;2022-08-03T11:38:12;35.20;90.50
15044;DHT22;7619;48.562;8.910;2022-08-03T11:40:43;35.20;90.30
15044;DHT22;7619;48.562;8.910;2022-08-03T11:43:42;35.10;90.20
15044;DHT22;7619;48.562;8.910;2022-08-03T11:46:13;35.30;89.80
15044;DHT22;7619;48.562;8.910;2022-08-03T11:48:47;35.40;87.70
15044;DHT22;7619;48.562;8.910;2022-08-03T11:51:21;35.50;88.40
15044;DHT22;7619;48.562;8.910;2022-08-03T11:56:23;35.10;90.00
15044;DHT22;7619;48.562;8.910;2022-08-03T11:58:54;35.20;89.70
15044;DHT22;7619;48.562;8.910;2022-08-03T12:08:49;35.00;89.30
15044;DHT22;7619;48.562;8.910;2022-08-03T12:11:17;35.30;87.90
15044;DHT22;7619;48.562;8.910;2022-08-03T12:13:49;35.40;88.20
15044;DHT22;7619;48.562;8.910;2022-08-03T12:16:19;35.40;88.30
15044;DHT22;7619;48.562;8.910;2022-08-03T12:21:24;35.20;86.40
15044;DHT22;7619;48.562;8.910;2022-08-03T12:23:57;35.10;86.30
15044;DHT22;7619;48.562;8.910;2022-08-03T12:26:27;35.20;86.80
15044;DHT22;7619;48.562;8.910;2022-08-03T12:31:24;35.80;86.10
15044;DHT22;7619;48.562;8.910;2022-08-03T12:33:57;36.00;83.90
15044;DHT22;7619;48.562;8.910;2022-08-03T12:36:29;36.10;85.20
15044;DHT22;7619;48.562;8.910;2022-08-03T12:38:59;36.10;86.80
15044;DHT22;7619;48.562;8.910;2022-08-03T12:41:30;36.10;86.10
15044;DHT22;7619;48.562;8.910;2022-08-03T12:44:00;36.40;85.20
15044;DHT22;7619;48.562;8.910;2022-08-03T12:46:32;36.80;83.60
15044;DHT22;7619;48.562;8.910;2022-08-03T12:49:04;36.70;84.30
15044;DHT22;7619;48.562;8.910;2022-08-03T12:54:17;37.10;84.10
15044;DHT22;7619;48.562;8.910;2022-08-03T12:56:57;37.50;82.50
15044;DHT22;7619;48.562;8.910;2022-08-03T12:59:28;37.40;82.70
15044;DHT22;7619;48.562;8.910;2022-08-03T13:01:57;37.50;82.50
15044;DHT22;7619;48.562;8.910;2022-08-03T13:04:27;37.50;83.20
15044;DHT22;7619;48.562;8.910;2022-08-03T13:07:00;37.20;82.10
15044;DHT22;7619;48.562;8.910;2022-08-03T13:09:30;37.30;82.60
15044;DHT22;7619;48.562;8.910;2022-08-03T13:12:10;37.60;82.40
15044;DHT22;7619;48.562;8.910;2022-08-03T13:14:38;37.60;81.60
15044;DHT22;7619;48.562;8.910;2022-08-03T13:17:07;37.50;82.20
15044;DHT22;7619;48.562;8.910;2022-08-03T13:19:37;37.50;82.50
15044;DHT22;7619;48.562;8.910;2022-08-03T13:22:13;37.30;80.00
15044;DHT22;7619;48.562;8.910;2022-08-03T13:24:44;37.50;83.20
15044;DHT22;7619;48.562;8.910;2022-08-03T13:27:14;37.40;80.20
15044;DHT22;7619;48.562;8.910;2022-08-03T13:29:43;37.20;80.50
15044;DHT22;7619;48.562;8.910;2022-08-03T13:32:12;37.60;81.60
15044;DHT22;7619;48.562;8.910;2022-08-03T13:34:41;37.30;80.40
15044;DHT22;7619;48.562;8.910;2022-08-03T13:37:09;37.60;79.90
15044;DHT22;7619;48.562;8.910;2022-08-03T13:39:38;37.70;80.10
15044;DHT22;7619;48.562;8.910;2022-08-03T13:47:04;38.20;79.50
15044;DHT22;7619;48.562;8.910;2022-08-03T13:49:33;38.50;79.00
15044;DHT22;7619;48.562;8.910;2022-08-03T13:52:02;38.40;78.80
15044;DHT22;7619;48.562;8.910;2022-08-03T13:54:31;38.50;78.70
15044;DHT22;7619;48.562;8.910;2022-08-03T13:57:00;38.20;77.30
15044;DHT22;7619;48.562;8.910;2022-08-03T13:59:29;38.40;77.10
15044;DHT22;7619;48.562;8.910;2022-08-03T14:01:58;38.50;77.20
15044;DHT22;7619;48.562;8.910;2022-08-03T14:06:55;38.50;77.60
15044;DHT22;7619;48.562;8.910;2022-08-03T14:09:24;38.10;76.30
15044;DHT22;7619;48.562;8.910;2022-08-03T14:11:52;37.60;75.30
15044;DHT22;7619;48.562;8.910;2022-08-03T14:14:21;37.70;75.70
15044;DHT22;7619;48.562;8.910;2022-08-03T14:19:18;37.80;74.80
15044;DHT22;7619;48.562;8.910;2022-08-03T14:21:47;37.60;75.40
15044;DHT22;7619;48.562;8.910;2022-08-03T14:24:15;37.50;74.00
15044;DHT22;7619;48.562;8.910;2022-08-03T14:26:44;37.70;73.50
15044;DHT22;7619;48.562;8.910;2022-08-03T14:29:13;37.90;74.20
15044;DHT22;7619;48.562;8.910;2022-08-03T14:34:09;38.40;74.50
15044;DHT22;7619;48.562;8.910;2022-08-03T14:36:38;38.60;74.90
15044;DHT22;7619;48.562;8.910;2022-08-03T14:39:08;38.70;73.70
15044;DHT22;7619;48.562;8.910;2022-08-03T14:44:05;38.20;74.50
15044;DHT22;7619;48.562;8.910;2022-08-03T14:46:34;38.10;75.10
15044;DHT22;7619;48.562;8.910;2022-08-03T14:49:03;38.10;73.40
15044;DHT22;7619;48.562;8.910;2022-08-03T14:51:32;38.30;74.00
15044;DHT22;7619;48.562;8.910;2022-08-03T14:54:01;38.40;74.20
15044;DHT22;7619;48.562;8.910;2022-08-03T14:56:29;38.30;73.60
15044;DHT22;7619;48.562;8.910;2022-08-03T14:58:58;38.60;73.00
15044;DHT22;7619;48.562;8.910;2022-08-03T15:01:27;38.60;72.80
15044;DHT22;7619;48.562;8.910;2022-08-03T15:03:56;38.60;72.70
15044;DHT22;7619;48.562;8.910;2022-08-03T15:06:24;38.50;72.30
15044;DHT22;7619;48.562;8.910;2022-08-03T15:08:53;38.50;72.60
15044;DHT22;7619;48.562;8.910;2022-08-03T15:11:22;38.30;72.20
15044;DHT22;7619;48.562;8.910;2022-08-03T15:13:51;37.70;72.70
15044;DHT22;7619;48.562;8.910;2022-08-03T15:16:19;37.50;71.20
15044;DHT22;7619;48.562;8.910;2022-08-03T15:18:48;37.50;71.80
15044;DHT22;7619;48.562;8.910;2022-08-03T15:21:17;38.30;71.10
15044;DHT22;7619;48.562;8.910;2022-08-03T15:23:46;38.10;72.70
15044;DHT22;7619;48.562;8.910;2022-08-03T15:26:15;38.10;71.10
15044;DHT22;7619;48.562;8.910;2022-08-03T15:28:43;38.10;70.40
15044;DHT22;7619;48.562;8.910;2022-08-03T15:31:12;38.00;71.40
15044;DHT22;7619;48.562;8.910;2022-08-03T15:33:41;37.80;68.80
15044;DHT22;7619;48.562;8.910;2022-08-03T15:36:10;37.90;69.60
15044;DHT22;7619;48.562;8.910;2022-08-03T15:41:06;37.70;71.30
15044;DHT22;7619;48.562;8.910;2022-08-03T15:43:35;37.80;70.80
15044;DHT22;7619;48.562;8.910;2022-08-03T15:46:04;37.90;71.40
15044;DHT22;7619;48.562;8.910;2022-08-03T15:48:33;38.10;70.90
15044;DHT22;7619;48.562;8.910;2022-08-03T15:51:02;38.20;71.70
15044;DHT22;7619;48.562;8.910;2022-08-03T15:53:31;37.40;70.00
15044;DHT22;7619;48.562;8.910;2022-08-03T15:56:00;36.90;70.00
15044;DHT22;7619;48.562;8.910;2022-08-03T15:58:30;36.40;68.80
15044;DHT22;7619;48.562;8.910;2022-08-03T16:03:28;36.50;69.90
15044;DHT22;7619;48.562;8.910;2022-08-03T16:06:01;36.40;70.30
15044;DHT22;7619;48.562;8.910;2022-08-03T16:08:30;36.10;69.90
15044;DHT22;7619;48.562;8.910;2022-08-03T16:10:59;36.00;70.80
15044;DHT22;7619;48.562;8.910;2022-08-03T16:15:56;36.00;69.40
15044;DHT22;7619;48.562;8.910;2022-08-03T16:18:26;35.70;70.10
15044;DHT22;7619;48.562;8.910;2022-08-03T16:20:56;35.40;68.90
15044;DHT22;7619;48.562;8.910;2022-08-03T16:23:25;35.20;68.80
15044;DHT22;7619;48.562;8.910;2022-08-03T16:25:54;35.10;69.40
15044;DHT22;7619;48.562;8.910;2022-08-03T16:28:23;35.00;69.80
15044;DHT22;7619;48.562;8.910;2022-08-03T16:30:52;34.90;70.10
15044;DHT22;7619;48.562;8.910;2022-08-03T16:33:21;34.80;69.80
15044;DHT22;7619;48.562;8.910;2022-08-03T16:35:49;34.80;69.50
15044;DHT22;7619;48.562;8.910;2022-08-03T16:38:18;34.70;69.50
15044;DHT22;7619;48.562;8.910;2022-08-03T16:40:48;34.60;69.60
15044;DHT22;7619;48.562;8.910;2022-08-03T16:45:47;34.50;69.30
15044;DHT22;7619;48.562;8.910;2022-08-03T16:48:16;34.40;71.60
15044;DHT22;7619;48.562;8.910;2022-08-03T16:50:46;34.30;69.80
15044;DHT22;7619;48.562;8.910;2022-08-03T16:53:15;34.10;70.80
15044;DHT22;7619;48.562;8.910;2022-08-03T16:55:44;33.90;69.80
15044;DHT22;7619;48.562;8.910;2022-08-03T16:58:13;33.70;70.30
15044;DHT22;7619;48.562;8.910;2022-08-03T17:00:45;33.70;70.20
15044;DHT22;7619;48.562;8.910;2022-08-03T17:03:15;33.60;70.00
15044;DHT22;7619;48.562;8.910;2022-08-03T17:05:45;33.60;71.20
15044;DHT22;7619;48.562;8.910;2022-08-03T17:08:14;33.50;71.40
15044;DHT22;7619;48.562;8.910;2022-08-03T17:10:43;33.60;71.10
15044;DHT22;7619;48.562;8.910;2022-08-03T17:13:12;33.40;72.10
15044;DHT22;7619;48.562;8.910;2022-08-03T17:15:42;33.40;71.90
15044;DHT22;7619;48.562;8.910;2022-08-03T17:18:15;33.30;72.10
15044;DHT22;7619;48.562;8.910;2022-08-03T17:20:46;33.20;71.90
15044;DHT22;7619;48.562;8.910;2022-08-03T17:23:23;33.00;72.00
15044;DHT22;7619;48.562;8.910;2022-08-03T17:25:51;32.80;71.50
15044;DHT22;7619;48.562;8.910;2022-08-03T17:28:21;32.80;74.60
15044;DHT22;7619;48.562;8.910;2022-08-03T17:30:51;32.70;74.50
15044;DHT22;7619;48.562;8.910;2022-08-03T17:33:39;32.50;74.30
15044;DHT22;7619;48.562;8.910;2022-08-03T17:36:08;32.50;73.20
15044;DHT22;7619;48.562;8.910;2022-08-03T17:38:38;32.30;76.80
15044;DHT22;7619;48.562;8.910;2022-08-03T17:48:45;31.90;75.10
15044;DHT22;7619;48.562;8.910;2022-08-03T17:53:58;31.70;77.20
15044;DHT22;7619;48.562;8.910;2022-08-03T17:56:31;31.60;77.70
15044;DHT22;7619;48.562;8.910;2022-08-03T17:59:06;31.50;76.50
15044;DHT22;7619;48.562;8.910;2022-08-03T18:06:42;31.20;73.90
15044;DHT22;7619;48.562;8.910;2022-08-03T18:09:13;31.00;73.80
15044;DHT22;7619;48.562;8.910;2022-08-03T18:11:45;31.00;72.40
15044;DHT22;7619;48.562;8.910;2022-08-03T18:14:18;30.80;71.10
15044;DHT22;7619;48.562;8.910;2022-08-03T18:19:27;30.50;68.50
15044;DHT22;7619;48.562;8.910;2022-08-03T18:21:56;30.40;66.00
15044;DHT22;7619;48.562;8.910;2022-08-03T18:24:25;30.20;65.90
15044;DHT22;7619;48.562;8.910;2022-08-03T18:29:33;29.90;64.80
15044;DHT22;7619;48.562;8.910;2022-08-03T18:34:47;29.70;62.90